createdAt,value
2022-08-22T00:02:02.350Z,101428.81
2022-08-22T00:02:45.719Z,101384.50
2022-08-22T00:02:46.733Z,101416.66
2022-08-22T00:02:46.943Z,101424.88
2022-08-22T00:02:59.130Z,101429.47
2022-08-22T00:03:11.929Z,101412.88
2022-08-22T00:03:15.576Z,101431.38
2022-08-22T00:04:28.795Z,101434.97
2022-08-22T00:07:08.362Z,101442.38
2022-08-22T00:09:47.238Z,101437.91
2022-08-22T00:12:32.760Z,101439.81
2022-08-22T00:15:03.866Z,101433.47
2022-08-22T00:17:33.104Z,101442.38
2022-08-22T00:20:06.177Z,101431.56
2022-08-22T00:22:52.821Z,101435.38
2022-08-22T00:25:29.861Z,101436.22
2022-08-22T00:28:06.238Z,101431.56
2022-08-22T00:30:37.885Z,101433.47
2022-08-22T00:33:11.433Z,101435.38
2022-08-22T00:35:44.498Z,101438.13
2022-08-22T00:38:14.695Z,101440.03
2022-08-22T00:40:45.123Z,101436.44
2022-08-22T00:43:17.756Z,101430.28
2022-08-22T00:46:02.840Z,101428.59
2022-08-22T00:48:47.872Z,101434.94
2022-08-22T00:51:34.602Z,101430.50
2022-08-22T00:54:19.513Z,101428.81
2022-08-22T00:56:52.273Z,101427.97
2022-08-22T00:59:37.865Z,101429.00
2022-08-22T01:02:04.960Z,101437.25
2022-08-22T01:04:46.033Z,101427.97
2022-08-22T01:07:38.076Z,101429.66
2022-08-22T01:10:23.917Z,101429.00
2022-08-22T01:13:02.830Z,101430.72
2022-08-22T01:15:31.582Z,101425.63
2022-08-22T01:18:01.031Z,101436.22
2022-08-22T01:20:42.821Z,101435.38
2022-08-22T01:23:28.177Z,101450.81
2022-08-22T01:25:54.598Z,101450.81
2022-08-22T01:28:40.759Z,101454.41
2022-08-22T01:31:28.664Z,101450.81
2022-08-22T01:34:04.313Z,101456.47
2022-08-22T01:36:37.420Z,101451.88
2022-08-22T01:39:03.948Z,101461.78
2022-08-22T01:41:41.284Z,101461.56
2022-08-22T01:44:07.742Z,101461.56
2022-08-22T01:46:37.351Z,101459.88
2022-08-22T01:49:22.620Z,101466.44
2022-08-22T01:52:01.964Z,101457.97
2022-08-22T01:54:44.081Z,101464.72
2022-08-22T01:57:11.277Z,101462.84
2022-08-22T01:59:46.112Z,101458.38
2022-08-22T02:02:38.620Z,101461.13
2022-08-22T02:05:17.269Z,101460.69
2022-08-22T02:07:46.737Z,101461.34
2022-08-22T02:10:23.554Z,101451.63
2022-08-22T02:13:00.063Z,101449.91
2022-08-22T02:15:33.357Z,101458.16
2022-08-22T02:18:00.989Z,101455.41
2022-08-22T02:20:30.418Z,101443.81
2022-08-22T02:23:06.210Z,101454.78
2022-08-22T02:25:51.539Z,101451.16
2022-08-22T02:28:30.292Z,101459.41
2022-08-22T02:31:10.380Z,101446.75
2022-08-22T02:33:46.309Z,101448.63
2022-08-22T02:36:18.804Z,101454.97
2022-08-22T02:39:03.873Z,101453.28
2022-08-22T02:41:48.692Z,101453.28
2022-08-22T02:44:21.129Z,101447.78
2022-08-22T02:46:47.550Z,101445.06
2022-08-22T02:49:27.922Z,101451.59
2022-08-22T02:52:03.566Z,101454.34
2022-08-22T02:54:38.513Z,101446.97
2022-08-22T02:57:13.084Z,101444.41
2022-08-22T02:59:59.917Z,101448.00
2022-08-22T03:02:29.650Z,101446.28
2022-08-22T03:04:57.945Z,101449.03
2022-08-22T03:07:40.883Z,101450.09
2022-08-22T03:10:13.458Z,101437.44
2022-08-22T03:12:50.011Z,101442.09
2022-08-22T03:15:23.009Z,101448.41
2022-08-22T03:17:55.566Z,101438.50
2022-08-22T03:20:38.218Z,101445.00
2022-08-22T03:23:11.866Z,101443.97
2022-08-22T03:25:52.358Z,101436.78
2022-08-22T03:28:22.165Z,101433.19
2022-08-22T03:30:51.550Z,101431.50
2022-08-22T03:33:25.450Z,101434.25
2022-08-22T03:36:08.154Z,101435.31
2022-08-22T03:38:34.575Z,101438.25
2022-08-22T03:41:19.747Z,101443.72
2022-08-22T03:44:04.954Z,101443.09
2022-08-22T03:46:49.898Z,101441.41
2022-08-22T03:49:33.228Z,101442.44
2022-08-22T03:52:15.141Z,101447.94
2022-08-22T03:54:41.545Z,101449.84
2022-08-22T03:57:28.288Z,101447.31
2022-08-22T04:00:11.386Z,101452.59
2022-08-22T04:02:50.028Z,101449.00
2022-08-22T04:05:34.891Z,101448.16
2022-08-22T04:08:07.404Z,101456.38
2022-08-22T04:10:51.733Z,101454.69
2022-08-22T04:13:21.758Z,101459.97
2022-08-22T04:16:00.541Z,101457.44
2022-08-22T04:18:40.626Z,101460.19
2022-08-22T04:21:28.433Z,101459.13
2022-08-22T04:23:57.899Z,101468.44
2022-08-22T04:26:43.933Z,101473.72
2022-08-22T04:29:39.954Z,101472.25
2022-08-22T04:32:12.697Z,101481.50
2022-08-22T04:34:54.667Z,101488.72
2022-08-22T04:37:35.296Z,101481.31
2022-08-22T04:40:01.785Z,101491.47
2022-08-22T04:42:33.059Z,101479.59
2022-08-22T04:45:16.567Z,101487.66
2022-08-22T04:48:06.581Z,101493.16
2022-08-22T04:50:45.225Z,101490.59
2022-08-22T04:53:12.329Z,101499.88
2022-08-22T04:55:57.329Z,101502.63
2022-08-22T04:58:33.103Z,101499.03
2022-08-22T05:01:13.567Z,101498.81
2022-08-22T05:03:45.065Z,101495.06
2022-08-22T05:06:13.477Z,101498.44
2022-08-22T05:08:40.949Z,101499.94
2022-08-22T05:11:09.462Z,101511.34
2022-08-22T05:13:48.410Z,101508.63
2022-08-22T05:16:18.958Z,101507.56
2022-08-22T05:18:48.026Z,101503.75
2022-08-22T05:21:16.789Z,101508.41
2022-08-22T05:24:06.754Z,101516.41
2022-08-22T05:26:42.986Z,101517.25
2022-08-22T05:29:11.769Z,101509.91
2022-08-22T05:31:53.115Z,101519.81
2022-08-22T05:34:23.172Z,101523.41
2022-08-22T05:36:58.238Z,101529.75
2022-08-22T05:39:27.924Z,101523.19
2022-08-22T05:41:55.997Z,101525.75
2022-08-22T05:44:25.209Z,101529.34
2022-08-22T05:46:59.941Z,101525.75
2022-08-22T05:49:32.435Z,101523.41
2022-08-22T05:52:11.303Z,101528.69
2022-08-22T05:54:43.036Z,101528.25
2022-08-22T05:57:15.653Z,101526.38
2022-08-22T05:59:44.574Z,101529.75
2022-08-22T06:02:23.035Z,101527.84
2022-08-22T06:04:54.675Z,101525.09
2022-08-22T06:07:35.014Z,101537.78
2022-08-22T06:10:01.524Z,101538.00
2022-08-22T06:12:28.018Z,101535.25
2022-08-22T06:15:02.603Z,101542.44
2022-08-22T06:17:49.305Z,101547.91
2022-08-22T06:20:27.065Z,101544.31
2022-08-22T06:22:57.589Z,101549.81
2022-08-22T06:25:30.548Z,101548.75
2022-08-22T06:27:58.947Z,101547.75
2022-08-22T06:30:26.520Z,101540.34
2022-08-22T06:32:59.985Z,101538.03
2022-08-22T06:35:56.142Z,101546.06
2022-08-22T06:38:26.434Z,101548.41
2022-08-22T06:40:54.402Z,101542.69
2022-08-22T06:43:22.668Z,101551.59
2022-08-22T06:45:50.065Z,101551.19
2022-08-22T06:48:18.499Z,101546.34
2022-08-22T06:50:49.074Z,101548.03
2022-08-22T06:53:18.272Z,101553.53
2022-08-22T06:55:49.372Z,101556.94
2022-08-22T06:58:18.185Z,101550.16
2022-08-22T07:00:53.580Z,101555.66
2022-08-22T07:03:37.253Z,101551.84
2022-08-22T07:06:05.322Z,101555.66
2022-08-22T07:08:38.493Z,101555.66
2022-08-22T07:11:11.841Z,101564.94
2022-08-22T07:13:39.311Z,101565.78
2022-08-22T07:16:08.400Z,101567.47
2022-08-22T07:18:45.045Z,101570.06
2022-08-22T07:21:11.518Z,101568.16
2022-08-22T07:23:40.572Z,101567.94
2022-08-22T07:26:07.007Z,101568.78
2022-08-22T07:28:36.718Z,101573.63
2022-08-22T07:31:13.453Z,101573.63
2022-08-22T07:33:45.306Z,101572.78
2022-08-22T07:36:22.962Z,101579.97
2022-08-22T07:39:11.073Z,101575.31
2022-08-22T07:41:54.842Z,101573.44
2022-08-22T07:44:23.958Z,101581.47
2022-08-22T07:46:58.509Z,101583.56
2022-08-22T07:49:29.077Z,101585.47
2022-08-22T07:51:58.886Z,101577.22
2022-08-22T07:54:32.578Z,101575.31
2022-08-22T07:57:01.594Z,101574.94
2022-08-22T07:59:29.112Z,101579.38
2022-08-22T08:01:57.067Z,101574.72
2022-08-22T08:04:31.434Z,101577.47
2022-08-22T08:06:59.836Z,101582.78
2022-08-22T08:09:40.537Z,101581.72
2022-08-22T08:12:09.765Z,101576.22
2022-08-22T08:14:39.692Z,101575.16
2022-08-22T08:17:14.515Z,101581.50
2022-08-22T08:19:42.139Z,101580.44
2022-08-22T08:22:12.950Z,101574.94
2022-08-22T08:24:43.697Z,101588.28
2022-08-22T08:27:35.773Z,101575.38
2022-08-22T08:30:05.241Z,101581.72
2022-08-22T08:32:34.666Z,101586.19
2022-08-22T08:35:06.733Z,101581.31
2022-08-22T08:37:41.809Z,101572.84
2022-08-22T08:40:17.871Z,101581.75
2022-08-22T08:43:11.702Z,101577.13
2022-08-22T08:45:59.086Z,101577.13
2022-08-22T08:48:34.938Z,101573.72
2022-08-22T08:51:02.038Z,101577.31
2022-08-22T08:53:52.882Z,101573.72
2022-08-22T08:56:25.550Z,101570.09
2022-08-22T08:59:03.883Z,101573.91
2022-08-22T09:01:43.028Z,101570.31
2022-08-22T09:04:28.303Z,101571.16
2022-08-22T09:07:15.184Z,101567.56
2022-08-22T09:09:52.296Z,101572.22
2022-08-22T09:12:26.627Z,101578.34
2022-08-22T09:18:13.421Z,101574.56
2022-08-22T09:21:03.510Z,101568.22
2022-08-22T09:23:36.054Z,101571.16
2022-08-22T09:26:09.911Z,101566.72
2022-08-22T09:28:36.393Z,101563.97
2022-08-22T09:31:16.514Z,101569.47
2022-08-22T09:33:55.046Z,101567.78
2022-08-22T09:36:26.138Z,101575.81
2022-08-22T09:38:52.826Z,101573.28
2022-08-22T09:41:29.436Z,101576.22
2022-08-22T09:43:56.002Z,101582.56
2022-08-22T09:46:22.578Z,101581.53
2022-08-22T09:49:13.082Z,101574.13
2022-08-22T09:51:44.957Z,101572.44
2022-08-22T09:54:11.357Z,101585.97
2022-08-22T09:56:40.876Z,101577.72
2022-08-22T09:59:28.215Z,101574.13
2022-08-22T10:01:54.824Z,101579.81
2022-08-22T10:04:28.041Z,101578.97
2022-08-22T10:07:13.441Z,101578.13
2022-08-22T10:09:42.960Z,101582.56
2022-08-22T10:12:17.077Z,101578.13
2022-08-22T10:15:02.191Z,101583.63
2022-08-22T10:17:32.400Z,101583.63
2022-08-22T10:20:09.113Z,101576.22
2022-08-22T10:22:36.358Z,101582.38
2022-08-22T10:25:18.537Z,101587.66
2022-08-22T10:27:51.566Z,101585.75
2022-08-22T10:30:38.368Z,101583.00
2022-08-22T10:33:14.337Z,101586.41
2022-08-22T10:35:47.872Z,101584.31
2022-08-22T10:38:27.614Z,101572.00
2022-08-22T10:41:03.070Z,101585.16
2022-08-22T10:43:47.921Z,101581.38
2022-08-22T10:46:36.383Z,101584.31
2022-08-22T10:49:08.164Z,101578.81
2022-08-22T10:51:49.730Z,101580.53
2022-08-22T10:54:27.887Z,101587.06
2022-08-22T10:56:57.413Z,101587.06
2022-08-22T10:59:45.158Z,101581.56
2022-08-22T11:02:30.669Z,101583.47
2022-08-22T11:04:58.031Z,101584.31
2022-08-22T11:07:44.487Z,101573.97
2022-08-22T11:10:41.067Z,101577.38
2022-08-22T11:13:28.086Z,101572.72
2022-08-22T11:16:12.804Z,101574.22
2022-08-22T11:19:04.867Z,101567.66
2022-08-22T11:21:41.978Z,101573.81
2022-08-22T11:24:19.983Z,101574.66
2022-08-22T11:27:12.948Z,101572.75
2022-08-22T11:29:56.694Z,101571.69
2022-08-22T11:32:33.410Z,101578.88
2022-08-22T11:35:09.100Z,101572.34
2022-08-22T11:37:54.908Z,101568.53
2022-08-22T11:40:23.297Z,101580.38
2022-08-22T11:43:03.175Z,101565.56
2022-08-22T11:45:36.482Z,101573.63
2022-08-22T11:48:06.930Z,101570.66
2022-08-22T11:50:39.351Z,101570.66
2022-08-22T11:53:14.819Z,101568.75
2022-08-22T11:55:47.130Z,101569.59
2022-08-22T11:58:19.912Z,101573.00
2022-08-22T12:00:54.247Z,101562.00
2022-08-22T12:03:26.652Z,101578.28
2022-08-22T12:06:08.484Z,101567.28
2022-08-22T12:08:40.803Z,101562.63
2022-08-22T12:11:10.022Z,101566.22
2022-08-22T12:14:02.314Z,101564.13
2022-08-22T12:16:42.590Z,101563.91
2022-08-22T12:19:32.902Z,101564.75
2022-08-22T12:22:18.076Z,101559.47
2022-08-22T12:25:03.528Z,101553.75
2022-08-22T12:27:35.790Z,101563.06
2022-08-22T12:30:13.075Z,101556.50
2022-08-22T12:32:57.430Z,101556.31
2022-08-22T12:35:42.132Z,101551.66
2022-08-22T12:38:28.887Z,101544.25
2022-08-22T12:40:59.010Z,101542.31
2022-08-22T12:43:42.671Z,101538.75
2022-08-22T12:46:29.723Z,101538.50
2022-08-22T12:48:59.261Z,101531.09
2022-08-22T12:51:38.172Z,101527.31
2022-08-22T12:54:24.619Z,101537.25
2022-08-22T12:56:56.334Z,101537.25
2022-08-22T12:59:22.853Z,101524.56
2022-08-22T13:01:52.370Z,101526.47
2022-08-22T13:04:33.529Z,101531.09
2022-08-22T13:07:08.945Z,101525.81
2022-08-22T13:09:37.914Z,101520.56
2022-08-22T13:12:14.527Z,101522.47
2022-08-22T13:14:47.729Z,101521.63
2022-08-22T13:17:25.146Z,101525.22
2022-08-22T13:19:52.214Z,101526.25
2022-08-22T13:22:22.206Z,101527.97
2022-08-22T13:25:04.736Z,101520.97
2022-08-22T13:27:33.965Z,101515.47
2022-08-22T13:30:02.822Z,101522.03
2022-08-22T13:32:44.230Z,101516.72
2022-08-22T13:35:18.216Z,101515.88
2022-08-22T13:37:52.375Z,101516.94
2022-08-22T13:40:25.666Z,101516.09
2022-08-22T13:42:56.761Z,101516.09
2022-08-22T13:45:27.825Z,101515.03
2022-08-22T13:47:56.906Z,101510.59
2022-08-22T13:50:25.915Z,101519.69
2022-08-22T13:52:55.321Z,101513.56
2022-08-22T13:55:29.640Z,101521.38
2022-08-22T13:58:07.516Z,101520.72
2022-08-22T14:00:58.977Z,101508.88
2022-08-22T14:03:31.954Z,101515.44
2022-08-22T14:06:32.882Z,101509.28
2022-08-22T14:08:48.334Z,101514.78
2022-08-22T14:11:38.476Z,101507.59
2022-08-22T14:14:08.198Z,101502.09
2022-08-22T14:16:45.626Z,101502.94
2022-08-22T14:19:14.170Z,101510.34
2022-08-22T14:21:42.262Z,101503.16
2022-08-22T14:24:45.418Z,101502.31
2022-08-22T14:27:27.601Z,101503.16
2022-08-22T14:30:02.903Z,101505.06
2022-08-22T14:32:41.867Z,101509.72
2022-08-22T14:35:25.583Z,101501.66
2022-08-22T14:38:27.353Z,101498.91
2022-08-22T14:41:06.029Z,101498.06
2022-08-22T14:43:33.523Z,101494.47
2022-08-22T14:46:02.051Z,101491.13
2022-08-22T14:48:39.182Z,101494.06
2022-08-22T14:51:10.454Z,101496.63
2022-08-22T14:53:41.687Z,101498.50
2022-08-22T14:56:08.329Z,101498.69
2022-08-22T14:59:00.983Z,101495.13
2022-08-22T15:01:29.842Z,101498.94
2022-08-22T15:03:59.281Z,101506.31
2022-08-22T15:06:38.152Z,101503.78
2022-08-22T15:09:09.262Z,101505.84
2022-08-22T15:11:42.099Z,101508.59
2022-08-22T15:14:13.410Z,101503.94
2022-08-22T15:16:42.630Z,101508.59
2022-08-22T15:19:20.774Z,101503.09
2022-08-22T15:21:47.681Z,101507.75
2022-08-22T15:24:16.874Z,101505.84
2022-08-22T15:26:51.897Z,101506.88
2022-08-22T15:29:31.459Z,101506.88
2022-08-22T15:32:01.081Z,101512.38
2022-08-22T15:34:38.448Z,101502.44
2022-08-22T15:37:17.770Z,101507.94
2022-08-22T15:39:57.008Z,101509.84
2022-08-22T15:42:30.614Z,101509.00
2022-08-22T15:44:58.167Z,101506.03
2022-08-22T15:47:28.504Z,101503.53
2022-08-22T15:50:00.244Z,101500.78
2022-08-22T15:52:29.003Z,101505.19
2022-08-22T15:54:57.207Z,101507.09
2022-08-22T15:57:41.043Z,101497.19
2022-08-22T16:00:14.116Z,101484.28
2022-08-22T16:02:56.208Z,101491.88
2022-08-22T16:05:35.577Z,101493.16
2022-08-22T16:08:06.384Z,101503.06
2022-08-22T16:10:41.786Z,101501.41
2022-08-22T16:13:11.691Z,101503.47
2022-08-22T16:15:54.401Z,101505.59
2022-08-22T16:18:39.368Z,101499.28
2022-08-22T16:21:18.134Z,101498.44
2022-08-22T16:23:54.127Z,101504.09
2022-08-22T16:26:23.643Z,101497.78
2022-08-22T16:28:59.477Z,101514.47
2022-08-22T16:31:27.339Z,101516.38
2022-08-22T16:33:55.550Z,101517.22
2022-08-22T16:36:40.646Z,101523.78
2022-08-22T16:39:33.167Z,101514.88
2022-08-22T16:42:23.021Z,101522.28
2022-08-22T16:45:08.377Z,101529.69
2022-08-22T16:47:40.649Z,101533.66
2022-08-22T16:50:07.569Z,101531.75
2022-08-22T16:52:54.264Z,101527.34
2022-08-22T16:55:30.157Z,101523.09
2022-08-22T16:58:06.844Z,101529.00
2022-08-22T17:00:36.619Z,101535.97
2022-08-22T17:03:05.833Z,101535.53
2022-08-22T17:05:44.235Z,101535.75
2022-08-22T17:08:10.719Z,101538.03
2022-08-22T17:10:44.457Z,101537.38
2022-08-22T17:13:29.505Z,101535.03
2022-08-22T17:16:26.709Z,101541.59
2022-08-22T17:19:13.371Z,101539.06
2022-08-22T17:21:53.617Z,101541.13
2022-08-22T17:24:33.503Z,101543.03
2022-08-22T17:27:05.783Z,101544.09
2022-08-22T17:29:41.021Z,101546.22
2022-08-22T17:32:26.399Z,101537.09
2022-08-22T17:34:59.404Z,101552.72
2022-08-22T17:37:26.055Z,101541.97
2022-08-22T17:39:55.591Z,101545.56
2022-08-22T17:42:37.439Z,101537.31
2022-08-22T17:45:03.902Z,101544.72
2022-08-22T17:47:33.425Z,101549.16
2022-08-22T17:50:10.944Z,101549.16
2022-08-22T17:52:42.649Z,101544.72
2022-08-22T17:55:15.309Z,101553.78
2022-08-22T17:57:44.761Z,101560.34
2022-08-22T18:00:30.716Z,101560.13
2022-08-22T18:03:00.407Z,101565.00
2022-08-22T18:05:29.544Z,101555.03
2022-08-22T18:08:09.605Z,101556.09
2022-08-22T18:10:45.693Z,101561.59
2022-08-22T18:13:12.464Z,101561.59
2022-08-22T18:15:41.976Z,101567.91
2022-08-22T18:18:31.835Z,101576.16
2022-08-22T18:21:05.712Z,101578.06
2022-08-22T18:23:44.116Z,101570.88
2022-08-22T18:26:29.358Z,101578.28
2022-08-22T18:29:00.089Z,101581.19
2022-08-22T18:31:26.495Z,101582.25
2022-08-22T18:34:00.816Z,101576.75
2022-08-22T18:36:31.727Z,101580.56
2022-08-22T18:39:29.120Z,101581.41
2022-08-22T18:42:11.019Z,101582.72
2022-08-22T18:44:39.457Z,101585.84
2022-08-22T18:47:12.010Z,101587.09
2022-08-22T18:49:40.219Z,101587.75
2022-08-22T18:52:09.342Z,101592.84
2022-08-22T18:55:05.354Z,101590.94
2022-08-22T18:57:50.357Z,101595.38
2022-08-22T19:00:21.515Z,101604.28
2022-08-22T19:03:07.642Z,101603.38
2022-08-22T19:05:37.028Z,101601.22
2022-08-22T19:08:23.819Z,101603.38
2022-08-22T19:10:50.261Z,101587.69
2022-08-22T19:13:35.760Z,101604.03
2022-08-22T19:16:18.775Z,101607.63
2022-08-22T19:19:07.700Z,101607.41
2022-08-22T19:22:19.215Z,101616.50
2022-08-22T19:25:02.597Z,101606.38
2022-08-22T19:27:31.346Z,101608.66
2022-08-22T19:29:59.890Z,101607.16
2022-08-22T19:32:44.503Z,101611.41
2022-08-22T19:35:25.005Z,101608.47
2022-08-22T19:37:51.949Z,101603.63
2022-08-22T19:40:40.675Z,101603.00
2022-08-22T19:43:24.107Z,101606.97
2022-08-22T19:45:53.013Z,101601.66
2022-08-22T19:48:44.667Z,101595.72
2022-08-22T19:51:20.419Z,101597.38
2022-08-22T19:53:55.637Z,101588.69
2022-08-22T19:56:32.673Z,101596.25
2022-08-22T19:59:20.113Z,101596.72
2022-08-22T20:01:55.379Z,101591.88
2022-08-22T20:04:40.349Z,101600.28
2022-08-22T20:07:16.834Z,101602.66
2022-08-22T20:10:01.030Z,101605.00
2022-08-22T20:12:49.332Z,101603.09
2022-08-22T20:15:20.395Z,101596.56
2022-08-22T20:18:11.613Z,101599.97
2022-08-22T20:21:14.046Z,101596.34
2022-08-22T20:23:40.757Z,101593.06
2022-08-22T20:26:08.626Z,101593.63
2022-08-22T20:28:47.044Z,101597.22
2022-08-22T20:31:22.202Z,101597.66
2022-08-22T20:33:52.358Z,101598.13
2022-08-22T20:36:28.788Z,101603.00
2022-08-22T20:39:01.846Z,101591.59
2022-08-22T20:41:32.643Z,101606.00
2022-08-22T20:44:22.498Z,101613.00
2022-08-22T20:46:53.458Z,101613.63
2022-08-22T20:49:21.417Z,101608.78
2022-08-22T20:51:52.947Z,101607.75
2022-08-22T20:54:21.053Z,101609.22
2022-08-22T20:56:53.556Z,101601.66
2022-08-22T20:59:31.025Z,101605.06
2022-08-22T21:02:03.867Z,101606.78
2022-08-22T21:04:36.067Z,101604.88
2022-08-22T21:07:04.045Z,101612.28
2022-08-22T21:09:49.009Z,101604.22
2022-08-22T21:12:18.142Z,101602.53
2022-08-22T21:14:48.004Z,101605.91
2022-08-22T21:17:17.374Z,101605.53
2022-08-22T21:19:43.846Z,101609.09
2022-08-22T21:22:11.484Z,101604.47
2022-08-22T21:24:37.962Z,101608.09
2022-08-22T21:27:06.698Z,101610.63
2022-08-22T21:29:34.979Z,101597.94
2022-08-22T21:32:13.736Z,101589.50
2022-08-22T21:34:44.976Z,101592.25
2022-08-22T21:37:14.441Z,101604.06
2022-08-22T21:39:45.986Z,101601.13
2022-08-22T21:42:21.102Z,101603.88
2022-08-22T21:44:56.540Z,101605.56
2022-08-22T21:47:30.929Z,101607.25
2022-08-22T21:50:20.760Z,101611.91
2022-08-22T21:52:56.285Z,101612.97
2022-08-22T21:55:23.396Z,101611.91
2022-08-22T21:58:02.011Z,101610.22
2022-08-22T22:00:49.714Z,101612.97
2022-08-22T22:03:17.511Z,101611.91
2022-08-22T22:05:44.449Z,101619.94
2022-08-22T22:08:11.639Z,101613.59
2022-08-22T22:10:39.585Z,101610.00
2022-08-22T22:13:06.450Z,101616.34
2022-08-22T22:15:36.777Z,101616.34
2022-08-22T22:18:04.242Z,101623.53
2022-08-22T22:20:31.034Z,101621.84
2022-08-22T22:22:57.517Z,101619.94
2022-08-22T22:25:40.676Z,101609.16
2022-08-22T22:28:14.029Z,101611.91
2022-08-22T22:30:41.341Z,101609.16
2022-08-22T22:33:07.854Z,101610.22
2022-08-22T22:35:34.609Z,101617.41
2022-08-22T22:38:01.311Z,101612.75
2022-08-22T22:40:28.141Z,101621.00
2022-08-22T22:42:54.621Z,101610.00
2022-08-22T22:45:21.070Z,101608.09
2022-08-22T22:47:47.550Z,101612.53
2022-08-22T22:50:14.111Z,101612.53
2022-08-22T22:52:40.867Z,101609.81
2022-08-22T22:55:07.839Z,101619.75
2022-08-22T22:57:42.549Z,101610.66
2022-08-22T23:00:10.986Z,101614.25
2022-08-22T23:02:37.464Z,101616.13
2022-08-22T23:05:04.259Z,101607.91
2022-08-22T23:07:33.907Z,101613.38
2022-08-22T23:10:01.322Z,101608.09
2022-08-22T23:12:28.211Z,101605.16
2022-08-22T23:14:54.653Z,101598.81
2022-08-22T23:17:21.176Z,101599.66
2022-08-22T23:19:47.861Z,101595.22
2022-08-22T23:22:14.507Z,101598.81
2022-08-22T23:24:41.194Z,101602.63
2022-08-22T23:27:08.503Z,101597.72
2022-08-22T23:29:35.323Z,101595.44
2022-08-22T23:32:02.559Z,101596.28
2022-08-22T23:34:30.843Z,101599.03
2022-08-22T23:36:59.406Z,101597.13
2022-08-22T23:39:26.966Z,101595.44
2022-08-22T23:41:53.530Z,101589.09
2022-08-22T23:44:21.230Z,101585.28
2022-08-22T23:46:47.769Z,101588.03
2022-08-22T23:49:15.599Z,101597.34
2022-08-22T23:51:42.350Z,101597.34
2022-08-22T23:54:09.047Z,101592.91
2022-08-22T23:56:37.496Z,101592.91
2022-08-22T23:59:05.932Z,101592.69
